Time;durP1;ratioP1;P1;durP2;ratioP2;P2;SDS_P1;SDS_P2;PMS_P1;PMS_P2;Temp;Humidity;BMP_temperature;BMP_pressure;BME280_temperature;BME280_humidity;BME280_pressure;Samples;Min_cycle;Max_cycle;Signal;HPM_P1;HPM_P2
2021/03/05 00:00:21;;;;;;;0.30;0.30;;;6.70;99.90;;;;;;5054420;28;20250;-76
2021/03/05 00:02:47;;;;;;;1.02;1.00;;;6.70;99.90;;;;;;5054125;28;20254;-76
2021/03/05 00:05:13;;;;;;;6.32;1.45;;;6.70;99.90;;;;;;5053944;28;20253;-76
2021/03/05 00:07:38;;;;;;;0.30;0.30;;;6.80;99.90;;;;;;5053978;28;20195;-76
2021/03/05 00:10:17;;;;;;;6.13;2.10;;;6.60;99.90;;;;;;5053699;28;20163;-76
2021/03/05 00:12:42;;;;;;;1.20;1.10;;;6.60;99.90;;;;;;5054223;28;20216;-77
2021/03/05 00:15:09;;;;;;;0.30;0.30;;;6.50;99.90;;;;;;5054357;28;20507;-77
2021/03/05 00:17:35;;;;;;;2.40;2.30;;;6.70;99.90;;;;;;5054595;28;20241;-77
2021/03/05 00:20:06;;;;;;;1.58;1.42;;;6.70;99.90;;;;;;5054278;28;20172;-77
2021/03/05 00:22:32;;;;;;;0.52;0.52;;;6.70;99.90;;;;;;5053875;28;20564;-76
2021/03/05 00:24:57;;;;;;;0.40;0.40;;;6.60;99.90;;;;;;5054227;28;20155;-77
2021/03/05 00:27:23;;;;;;;0.80;0.80;;;6.60;99.90;;;;;;5054052;28;20183;-77
2021/03/05 00:29:49;;;;;;;0.52;0.52;;;6.70;99.90;;;;;;5053615;28;20201;-77
2021/03/05 00:32:14;;;;;;;0.20;0.20;;;6.90;99.90;;;;;;5054187;28;20194;-76
2021/03/05 00:34:40;;;;;;;0.70;0.70;;;6.70;99.90;;;;;;5054778;28;20645;-77
2021/03/05 00:37:05;;;;;;;2.30;2.10;;;6.80;99.90;;;;;;5067265;28;20250;-75
2021/03/05 00:39:31;;;;;;;2.83;2.60;;;6.70;99.90;;;;;;5060529;28;20170;-76
2021/03/05 00:41:56;;;;;;;0.30;0.30;;;6.60;99.90;;;;;;5058112;28;20164;-77
2021/03/05 00:44:22;;;;;;;0.30;0.30;;;6.60;99.90;;;;;;5055760;28;20242;-76
2021/03/05 00:46:48;;;;;;;0.20;0.20;;;6.40;99.90;;;;;;5054137;28;20191;-77
2021/03/05 00:49:14;;;;;;;0.20;0.20;;;6.20;99.90;;;;;;5053778;28;20210;-76
2021/03/05 00:51:40;;;;;;;0.20;0.20;;;6.20;99.90;;;;;;5053756;28;20163;-75
2021/03/05 00:54:06;;;;;;;0.20;0.20;;;6.10;99.90;;;;;;5053505;28;20646;-76
2021/03/05 00:56:32;;;;;;;0.20;0.20;;;6.20;99.90;;;;;;5053090;28;20183;-76
2021/03/05 00:58:57;;;;;;;0.30;0.30;;;6.10;99.90;;;;;;5053065;28;20607;-76
2021/03/05 01:01:23;;;;;;;0.30;0.30;;;6.00;99.90;;;;;;5053469;28;20221;-77
2021/03/05 01:03:48;;;;;;;0.20;0.20;;;5.90;99.90;;;;;;5052856;28;20225;-76
2021/03/05 01:06:14;;;;;;;0.30;0.30;;;5.90;99.90;;;;;;5052647;28;20213;-76
2021/03/05 01:08:39;;;;;;;0.20;0.20;;;5.80;99.90;;;;;;5053095;28;20566;-76
2021/03/05 01:11:05;;;;;;;0.20;0.20;;;5.70;99.90;;;;;;5052813;28;20234;-77
2021/03/05 01:13:31;;;;;;;0.32;0.32;;;5.70;99.90;;;;;;5052665;28;20159;-77
2021/03/05 01:15:56;;;;;;;5.88;1.55;;;5.80;99.90;;;;;;5052579;28;20182;-77
2021/03/05 01:18:22;;;;;;;0.47;0.47;;;5.90;99.90;;;;;;5052527;28;20312;-77
2021/03/05 01:20:48;;;;;;;0.75;0.75;;;6.00;99.90;;;;;;5052693;28;20159;-76
2021/03/05 01:23:15;;;;;;;0.30;0.30;;;5.90;99.90;;;;;;5052697;28;20623;-76
2021/03/05 01:25:41;;;;;;;0.43;0.43;;;5.80;99.90;;;;;;5052670;28;20618;-77
2021/03/05 01:28:06;;;;;;;0.20;0.20;;;5.80;99.90;;;;;;5052793;28;20159;-77
2021/03/05 01:30:32;;;;;;;0.28;0.28;;;5.90;99.90;;;;;;5052561;28;20159;-77
2021/03/05 01:32:58;;;;;;;0.40;0.40;;;5.70;99.90;;;;;;5052549;28;20174;-77
2021/03/05 01:35:26;;;;;;;0.47;0.47;;;5.90;99.90;;;;;;5035487;28;20160;-77
2021/03/05 01:37:52;;;;;;;0.40;0.40;;;6.00;99.90;;;;;;5053263;28;20269;-77
2021/03/05 01:40:25;;;;;;;0.60;0.60;;;6.10;99.90;;;;;;5054040;28;20163;-77
2021/03/05 01:42:50;;;;;;;0.60;0.60;;;6.10;99.90;;;;;;5054400;28;20202;-76
2021/03/05 01:45:21;;;;;;;2.00;1.42;;;5.90;99.90;;;;;;5052969;28;20183;-76
2021/03/05 01:47:51;;;;;;;0.30;0.30;;;5.60;99.90;;;;;;5052510;28;20191;-76
2021/03/05 01:50:21;;;;;;;2.25;1.95;;;5.70;99.90;;;;;;5053514;28;20201;-77
2021/03/05 01:52:57;;;;;;;1.15;1.10;;;5.70;99.90;;;;;;5056075;28;20167;-76
2021/03/05 01:55:23;;;;;;;0.50;0.50;;;5.70;99.90;;;;;;5055951;28;20245;-77
2021/03/05 01:57:48;;;;;;;1.10;1.05;;;5.80;99.90;;;;;;5037607;28;20321;-76
2021/03/05 02:00:16;;;;;;;0.30;0.30;;;6.00;99.90;;;;;;5055846;28;20171;-77
2021/03/05 02:02:42;;;;;;;0.63;0.63;;;6.10;99.90;;;;;;5055807;28;20201;-77
2021/03/05 02:05:08;;;;;;;0.40;0.40;;;5.80;99.90;;;;;;5037795;28;20520;-77
2021/03/05 02:07:34;;;;;;;6.93;1.70;;;5.80;99.90;;;;;;5055823;28;20191;-76
2021/03/05 02:09:59;;;;;;;0.65;0.65;;;5.90;99.90;;;;;;5055709;28;20182;-76
2021/03/05 02:12:25;;;;;;;0.35;0.35;;;6.00;99.90;;;;;;5056152;28;20635;-76
2021/03/05 02:14:51;;;;;;;3.30;1.15;;;6.20;99.90;;;;;;5056074;28;20205;-76
2021/03/05 02:17:29;;;;;;;2.38;1.38;;;6.10;99.90;;;;;;5057360;28;20195;-76
2021/03/05 02:20:03;;;;;;;0.35;0.35;;;6.00;99.90;;;;;;5057494;28;20170;-76
2021/03/05 02:22:46;;;;;;;1.95;0.93;;;6.10;99.90;;;;;;5056972;28;20174;-76
2021/03/05 02:25:44;;;;;;;0.32;0.32;;;6.20;99.90;;;;;;5056776;28;20191;-76
2021/03/05 02:28:31;;;;;;;0.98;0.88;;;6.20;99.90;;;;;;5027928;28;20286;-76
2021/03/05 02:31:30;;;;;;;2.10;1.92;;;6.20;99.90;;;;;;5057158;28;20249;-76
2021/03/05 02:34:02;;;;;;;0.20;0.20;;;6.40;99.90;;;;;;5056740;28;20159;-76
2021/03/05 02:36:56;;;;;;;2.63;1.58;;;6.60;99.90;;;;;;5056392;28;20191;-77
2021/03/05 02:39:27;;;;;;;1.35;1.25;;;6.40;99.90;;;;;;5056259;28;20543;-76
2021/03/05 02:41:58;;;;;;;0.22;0.22;;;6.50;99.90;;;;;;5056007;28;20603;-76
2021/03/05 02:44:27;;;;;;;0.73;0.73;;;6.50;99.90;;;;;;5055839;28;20169;-76
2021/03/05 02:47:00;;;;;;;0.98;0.98;;;6.60;99.90;;;;;;5055209;28;20653;-76
2021/03/05 02:49:29;;;;;;;1.95;1.85;;;6.50;99.90;;;;;;5055233;28;20657;-77
2021/03/05 02:51:58;;;;;;;0.30;0.30;;;6.20;99.90;;;;;;5054898;28;20163;-76
2021/03/05 02:54:27;;;;;;;0.50;0.50;;;6.20;99.90;;;;;;5055290;28;20148;-76
2021/03/05 02:56:54;;;;;;;3.40;0.82;;;6.30;99.90;;;;;;5055106;28;20269;-76
2021/03/05 02:59:22;;;;;;;0.88;0.73;;;6.30;99.90;;;;;;5054987;28;20187;-77
2021/03/05 03:01:50;;;;;;;0.20;0.20;;;6.10;99.90;;;;;;5054834;28;20167;-75
2021/03/05 03:04:18;;;;;;;0.30;0.30;;;6.00;99.90;;;;;;5055258;28;20654;-75
2021/03/05 03:06:44;;;;;;;0.93;0.93;;;5.90;99.90;;;;;;5054741;28;20212;-77
2021/03/05 03:09:13;;;;;;;0.63;0.63;;;6.10;99.90;;;;;;5061482;28;20168;-76
2021/03/05 03:11:41;;;;;;;1.80;1.45;;;6.10;99.90;;;;;;5069627;28;20635;-76
2021/03/05 03:14:07;;;;;;;0.47;0.47;;;6.20;99.90;;;;;;5068804;28;20163;-76
2021/03/05 03:16:36;;;;;;;0.45;0.43;;;6.30;99.90;;;;;;5058818;28;20250;-76
2021/03/05 03:19:03;;;;;;;0.20;0.20;;;6.00;99.90;;;;;;5055821;28;20207;-76
2021/03/05 03:21:29;;;;;;;4.03;1.10;;;5.90;99.90;;;;;;5055542;28;20177;-76
2021/03/05 03:23:55;;;;;;;0.20;0.20;;;5.70;99.90;;;;;;5055341;28;20175;-76
2021/03/05 03:26:22;;;;;;;2.35;0.45;;;5.80;99.90;;;;;;5055087;28;20270;-76
2021/03/05 03:28:48;;;;;;;0.20;0.20;;;5.70;99.90;;;;;;5055433;28;20178;-76
2021/03/05 03:31:15;;;;;;;5.05;1.88;;;5.50;99.90;;;;;;5054639;28;20511;-76
2021/03/05 03:33:41;;;;;;;1.38;1.27;;;5.60;99.90;;;;;;5054334;28;20171;-76
2021/03/05 03:36:07;;;;;;;3.95;1.80;;;5.70;99.90;;;;;;5054311;28;20190;-77
2021/03/05 03:38:33;;;;;;;0.20;0.20;;;5.70;99.90;;;;;;5054913;28;20775;-77
2021/03/05 03:41:00;;;;;;;0.25;0.25;;;5.50;99.90;;;;;;5054897;28;20245;-76
2021/03/05 03:43:26;;;;;;;0.57;0.57;;;5.70;99.90;;;;;;5055679;28;20171;-76
2021/03/05 03:45:52;;;;;;;1.10;1.05;;;5.80;99.90;;;;;;5055203;28;20171;-76
2021/03/05 03:48:18;;;;;;;0.63;0.45;;;5.80;99.90;;;;;;5055383;28;20166;-76
2021/03/05 03:50:55;;;;;;;2.45;1.23;;;5.60;99.90;;;;;;5054907;28;20171;-76
2021/03/05 03:53:25;;;;;;;2.17;1.48;;;5.60;99.90;;;;;;5055226;28;20182;-76
2021/03/05 03:55:52;;;;;;;0.52;0.52;;;5.50;99.90;;;;;;5055218;28;20163;-76
2021/03/05 03:58:20;;;;;;;0.35;0.35;;;5.60;99.90;;;;;;5054778;28;20237;-77
2021/03/05 04:00:46;;;;;;;0.75;0.75;;;5.60;99.90;;;;;;5054111;28;20202;-76
2021/03/05 04:03:15;;;;;;;0.57;0.57;;;5.50;99.90;;;;;;5053787;28;20171;-76
2021/03/05 04:05:45;;;;;;;0.30;0.30;;;5.40;99.90;;;;;;5054502;28;20174;-76
2021/03/05 04:08:12;;;;;;;0.50;0.50;;;5.20;99.90;;;;;;5037011;28;20170;-76
2021/03/05 04:10:41;;;;;;;1.13;0.73;;;5.20;99.90;;;;;;5054307;28;20541;-77
2021/03/05 04:13:08;;;;;;;0.20;0.20;;;5.20;99.90;;;;;;5053346;28;20159;-75
2021/03/05 04:15:34;;;;;;;0.52;0.52;;;5.30;99.90;;;;;;5053807;28;20189;-76
2021/03/05 04:18:00;;;;;;;0.60;0.60;;;5.30;99.90;;;;;;5053488;28;20203;-76
2021/03/05 04:20:26;;;;;;;0.85;0.85;;;5.10;99.90;;;;;;5053585;28;20235;-76
2021/03/05 04:22:53;;;;;;;0.60;0.60;;;4.80;99.90;;;;;;5053354;28;20210;-76
2021/03/05 04:25:19;;;;;;;1.70;0.63;;;4.90;99.90;;;;;;5053395;28;20170;-76
2021/03/05 04:27:45;;;;;;;0.40;0.40;;;5.00;99.90;;;;;;5053395;28;20222;-76
2021/03/05 04:30:12;;;;;;;1.50;1.23;;;4.90;99.90;;;;;;5053521;28;20656;-76
2021/03/05 04:32:40;;;;;;;39.55;3.33;;;4.80;99.90;;;;;;5053416;28;20174;-77
2021/03/05 04:35:07;;;;;;;0.60;0.60;;;4.90;99.90;;;;;;5053229;28;20238;-77
2021/03/05 04:37:32;;;;;;;0.50;0.50;;;4.80;99.90;;;;;;5052892;28;20218;-77
2021/03/05 04:39:58;;;;;;;0.30;0.30;;;4.80;99.90;;;;;;5053119;28;20175;-77
2021/03/05 04:42:24;;;;;;;0.95;0.95;;;4.80;99.90;;;;;;5053115;28;20510;-77
2021/03/05 04:44:49;;;;;;;3.95;1.25;;;4.70;99.90;;;;;;5052958;28;20221;-76
2021/03/05 04:47:15;;;;;;;0.30;0.30;;;4.90;99.90;;;;;;5052876;28;20621;-75
2021/03/05 04:49:41;;;;;;;0.60;0.60;;;5.00;99.90;;;;;;5052744;28;20253;-75
2021/03/05 04:52:06;;;;;;;1.27;0.85;;;5.00;99.90;;;;;;5052841;28;20181;-75
2021/03/05 04:54:32;;;;;;;1.73;1.63;;;5.10;99.90;;;;;;5052919;28;20175;-75
2021/03/05 04:56:58;;;;;;;5.35;2.38;;;5.10;99.90;;;;;;5052690;28;20604;-75
2021/03/05 04:59:24;;;;;;;0.40;0.40;;;5.20;99.90;;;;;;5056023;28;20231;-75
2021/03/05 05:01:49;;;;;;;0.20;0.20;;;5.20;99.90;;;;;;5059336;28;20171;-76
2021/03/05 05:04:15;;;;;;;0.80;0.80;;;5.10;99.90;;;;;;5059511;28;20179;-76
2021/03/05 05:06:40;;;;;;;0.55;0.55;;;5.10;99.90;;;;;;5058905;28;20194;-76
2021/03/05 05:09:12;;;;;;;1.02;0.93;;;5.00;99.90;;;;;;5060614;28;20170;-76
2021/03/05 05:11:38;;;;;;;21.63;1.45;;;5.00;99.90;;;;;;5042460;28;20247;-76
2021/03/05 05:14:03;;;;;;;1.08;0.63;;;5.10;99.90;;;;;;5059911;28;20202;-77
2021/03/05 05:16:29;;;;;;;2.38;1.75;;;5.20;99.90;;;;;;5057972;28;20218;-78
2021/03/05 05:18:55;;;;;;;0.35;0.35;;;4.70;99.90;;;;;;5057488;28;20206;-76
2021/03/05 05:21:21;;;;;;;0.30;0.30;;;4.60;99.90;;;;;;5058706;28;20151;-76
2021/03/05 05:23:46;;;;;;;20.77;1.30;;;4.70;99.90;;;;;;5057661;28;20167;-77
2021/03/05 05:26:15;;;;;;;0.60;0.60;;;4.70;99.90;;;;;;5060071;28;20191;-77
2021/03/05 05:28:41;;;;;;;0.43;0.43;;;4.70;99.90;;;;;;5062137;28;20169;-77
2021/03/05 05:31:06;;;;;;;0.52;0.52;;;4.40;99.90;;;;;;5061546;28;20191;-77
2021/03/05 05:33:32;;;;;;;0.28;0.28;;;4.40;99.90;;;;;;5044477;28;20171;-77
2021/03/05 05:36:00;;;;;;;0.80;0.80;;;4.40;99.90;;;;;;5061936;28;20167;-77
2021/03/05 05:38:26;;;;;;;0.52;0.52;;;4.30;99.90;;;;;;5062134;28;20293;-77
2021/03/05 05:40:52;;;;;;;0.50;0.50;;;4.40;99.90;;;;;;5055065;28;20163;-76
2021/03/05 05:43:17;;;;;;;0.40;0.40;;;4.30;99.90;;;;;;5074048;28;20167;-75
2021/03/05 05:45:46;;;;;;;0.55;0.55;;;4.20;99.90;;;;;;5073693;28;20241;-76
2021/03/05 05:48:13;;;;;;;0.55;0.55;;;4.00;99.90;;;;;;5057636;28;20189;-77
2021/03/05 05:50:42;;;;;;;6.28;1.05;;;3.80;99.90;;;;;;5056567;28;20686;-75
2021/03/05 05:53:08;;;;;;;1.03;1.03;;;3.70;99.90;;;;;;5057600;28;20506;-76
2021/03/05 05:55:34;;;;;;;0.40;0.40;;;3.60;99.90;;;;;;5057493;28;20206;-77
2021/03/05 05:58:00;;;;;;;1.02;1.02;;;3.70;99.90;;;;;;5057010;28;20341;-77
2021/03/05 06:00:26;;;;;;;0.40;0.40;;;3.70;99.90;;;;;;5057243;28;20171;-77
2021/03/05 06:02:54;;;;;;;0.28;0.28;;;3.60;99.90;;;;;;5057117;28;20206;-77
2021/03/05 06:05:20;;;;;;;0.80;0.80;;;3.70;99.90;;;;;;5056973;28;20707;-77
2021/03/05 06:07:46;;;;;;;0.82;0.82;;;3.80;99.90;;;;;;5057735;28;20286;-76
2021/03/05 06:10:12;;;;;;;3.53;1.65;;;3.70;99.90;;;;;;5057899;28;20167;-76
2021/03/05 06:12:41;;;;;;;1.30;0.98;;;3.70;99.90;;;;;;5057510;28;20167;-77
2021/03/05 06:15:10;;;;;;;0.63;0.63;;;3.60;99.90;;;;;;5056248;28;20622;-77
2021/03/05 06:17:46;;;;;;;0.93;0.93;;;3.40;99.90;;;;;;5055759;28;20654;-77
2021/03/05 06:20:14;;;;;;;1.23;1.23;;;3.50;99.90;;;;;;5055798;28;20598;-77
2021/03/05 06:22:40;;;;;;;2.43;1.23;;;3.60;99.90;;;;;;5056347;28;20171;-77
2021/03/05 06:25:07;;;;;;;0.90;0.90;;;3.60;99.90;;;;;;5055535;28;20156;-77
2021/03/05 06:27:34;;;;;;;0.30;0.30;;;3.60;99.90;;;;;;5055384;28;20654;-77
2021/03/05 06:30:00;;;;;;;1.00;1.00;;;3.60;99.90;;;;;;5055339;28;20639;-75
2021/03/05 06:32:42;;;;;;;1.13;1.02;;;3.60;99.90;;;;;;5055371;28;20159;-75
2021/03/05 06:35:10;;;;;;;1.60;0.73;;;3.60;99.90;;;;;;5055235;28;20159;-76
2021/03/05 06:37:46;;;;;;;1.13;0.80;;;3.50;99.90;;;;;;5054946;28;20215;-76
2021/03/05 06:40:13;;;;;;;0.40;0.40;;;3.60;99.90;;;;;;5055302;28;20602;-76
2021/03/05 06:42:49;;;;;;;1.03;1.03;;;3.60;99.90;;;;;;5055498;28;20171;-77
2021/03/05 06:45:16;;;;;;;0.43;0.43;;;3.80;99.90;;;;;;5054992;28;20161;-77
2021/03/05 06:48:04;;;;;;;0.90;0.90;;;3.80;99.90;;;;;;5055055;28;20191;-76
2021/03/05 06:50:32;;;;;;;1.43;1.33;;;3.50;99.90;;;;;;5055061;28;20206;-76
2021/03/05 06:52:58;;;;;;;0.87;0.87;;;3.40;99.90;;;;;;5054972;28;20164;-76
2021/03/05 06:55:23;;;;;;;0.60;0.60;;;3.30;99.90;;;;;;5054008;28;20183;-76
2021/03/05 06:57:52;;;;;;;0.57;0.57;;;3.30;99.90;;;;;;5054643;28;20627;-76
2021/03/05 07:00:20;;;;;;;0.43;0.43;;;3.30;99.90;;;;;;5054765;28;20160;-76
2021/03/05 07:02:45;;;;;;;1.13;1.03;;;3.40;99.90;;;;;;5055155;28;20203;-75
2021/03/05 07:05:12;;;;;;;1.10;1.10;;;3.40;99.90;;;;;;5055618;28;20172;-76
2021/03/05 07:07:45;;;;;;;7.50;5.10;;;3.60;99.90;;;;;;5055437;28;20214;-77
2021/03/05 07:10:14;;;;;;;5.50;1.98;;;3.60;99.90;;;;;;5054824;28;20151;-76
2021/03/05 07:13:00;;;;;;;0.30;0.30;;;3.70;99.90;;;;;;5054323;28;20163;-77
2021/03/05 07:15:25;;;;;;;0.30;0.30;;;3.80;99.90;;;;;;5054462;28;20159;-76
2021/03/05 07:17:51;;;;;;;0.63;0.63;;;3.80;99.90;;;;;;5053472;28;20210;-76
2021/03/05 07:20:16;;;;;;;0.20;0.20;;;3.90;99.90;;;;;;5054360;28;20220;-76
2021/03/05 07:22:48;;;;;;;2.75;1.17;;;3.70;99.90;;;;;;5054547;28;20167;-76
2021/03/05 07:25:16;;;;;;;0.43;0.40;;;3.60;99.90;;;;;;5054348;28;20146;-76
2021/03/05 07:27:45;;;;;;;1.90;1.53;;;3.50;99.90;;;;;;5054367;28;20549;-76
2021/03/05 07:30:13;;;;;;;4.10;1.58;;;3.50;99.90;;;;;;5054511;28;20163;-76
2021/03/05 07:32:47;;;;;;;0.30;0.30;;;3.50;99.90;;;;;;5038931;28;20178;-76
2021/03/05 07:35:32;;;;;;;0.40;0.35;;;3.50;99.90;;;;;;5054536;28;20178;-77
2021/03/05 07:38:00;;;;;;;0.30;0.30;;;3.60;99.90;;;;;;5054301;28;20298;-77
2021/03/05 07:40:27;;;;;;;5.82;1.75;;;3.80;99.90;;;;;;5055123;28;20230;-77
2021/03/05 07:42:57;;;;;;;2.08;1.95;;;4.00;99.90;;;;;;5054415;28;20171;-77
2021/03/05 07:45:23;;;;;;;0.30;0.30;;;3.80;99.90;;;;;;5035906;28;20166;-78
2021/03/05 07:47:51;;;;;;;0.80;0.80;;;3.90;99.90;;;;;;5053448;28;20202;-78
2021/03/05 07:50:23;;;;;;;0.43;0.43;;;3.90;99.90;;;;;;5053952;28;20200;-75
2021/03/05 07:52:49;;;;;;;0.30;0.30;;;4.00;99.90;;;;;;5034912;28;20167;-77
2021/03/05 07:55:15;;;;;;;0.50;0.50;;;3.80;99.90;;;;;;5053128;28;20182;-77
2021/03/05 07:57:44;;;;;;;2.57;0.70;;;3.90;99.90;;;;;;5053548;28;20219;-76
2021/03/05 08:00:12;;;;;;;1.03;1.03;;;3.90;99.90;;;;;;5054065;28;20576;-77
2021/03/05 08:02:57;;;;;;;0.55;0.55;;;3.80;99.90;;;;;;5053924;28;20216;-78
2021/03/05 08:05:41;;;;;;;0.40;0.40;;;3.90;99.90;;;;;;5059057;28;20167;-77
2021/03/05 08:08:08;;;;;;;0.52;0.52;;;3.90;99.90;;;;;;5055282;28;20167;-78
2021/03/05 08:10:35;;;;;;;0.50;0.50;;;4.00;99.90;;;;;;5054006;28;20174;-79
2021/03/05 08:13:01;;;;;;;0.30;0.30;;;3.90;99.90;;;;;;5057951;28;20167;-79
2021/03/05 08:15:27;;;;;;;0.73;0.73;;;4.00;99.90;;;;;;5055458;28;20287;-76
2021/03/05 08:17:54;;;;;;;1.05;1.05;;;4.00;99.90;;;;;;5070747;28;20225;-75
2021/03/05 08:20:20;;;;;;;1.65;1.55;;;3.90;99.90;;;;;;5049721;28;20523;-77
2021/03/05 08:23:01;;;;;;;0.30;0.30;;;4.00;99.90;;;;;;5054305;28;20171;-77
2021/03/05 08:25:46;;;;;;;0.30;0.30;;;4.00;99.90;;;;;;5054043;28;20238;-76
2021/03/05 08:28:35;;;;;;;0.20;0.20;;;4.10;99.90;;;;;;5053827;28;20167;-78
2021/03/05 08:31:01;;;;;;;28.85;1.42;;;4.20;99.90;;;;;;5053832;28;20160;-77
2021/03/05 08:33:29;;;;;;;0.82;0.82;;;4.20;99.90;;;;;;5054171;28;20250;-77
2021/03/05 08:35:55;;;;;;;0.40;0.40;;;4.10;99.90;;;;;;5053957;28;20191;-76
2021/03/05 08:38:35;;;;;;;1.58;1.48;;;4.30;99.90;;;;;;5053911;28;20246;-76
2021/03/05 08:41:05;;;;;;;0.55;0.55;;;4.40;99.90;;;;;;5053318;28;20657;-76
2021/03/05 08:43:35;;;;;;;0.20;0.20;;;4.20;99.90;;;;;;5053586;28;20174;-77
2021/03/05 08:46:07;;;;;;;0.20;0.20;;;4.40;99.90;;;;;;5053094;28;20214;-80
2021/03/05 08:48:34;;;;;;;0.30;0.30;;;4.60;99.90;;;;;;5053509;28;20164;-77
2021/03/05 08:51:11;;;;;;;3.95;0.63;;;4.70;99.90;;;;;;5053003;28;20163;-79
2021/03/05 08:53:45;;;;;;;1.48;0.95;;;4.80;99.90;;;;;;5053706;28;20163;-77
2021/03/05 08:56:25;;;;;;;0.25;0.25;;;4.70;99.90;;;;;;5052599;28;20572;-75
2021/03/05 08:59:02;;;;;;;0.20;0.20;;;4.60;99.90;;;;;;5053832;28;20666;-78
2021/03/05 09:01:37;;;;;;;0.32;0.32;;;4.50;99.90;;;;;;5057862;28;20167;-78
2021/03/05 09:04:11;;;;;;;0.60;0.60;;;4.50;99.90;;;;;;5057231;28;20198;-78
2021/03/05 09:06:52;;;;;;;0.38;0.38;;;4.60;99.90;;;;;;5057170;28;20221;-77
2021/03/05 09:09:21;;;;;;;0.20;0.20;;;4.90;99.90;;;;;;5057127;28;20213;-76
2021/03/05 09:12:09;;;;;;;0.30;0.30;;;4.90;99.90;;;;;;5039054;28;20193;-76
2021/03/05 09:14:35;;;;;;;2.30;0.75;;;4.90;99.90;;;;;;5056882;28;20615;-75
2021/03/05 09:17:03;;;;;;;0.22;0.22;;;5.00;99.90;;;;;;5056172;28;20191;-75
2021/03/05 09:19:42;;;;;;;0.30;0.30;;;5.10;99.90;;;;;;5057356;28;20644;-76
2021/03/05 09:22:14;;;;;;;0.57;0.57;;;5.30;99.90;;;;;;5057117;28;20209;-75
2021/03/05 09:25:06;;;;;;;0.30;0.30;;;5.30;99.90;;;;;;5057507;28;20659;-77
2021/03/05 09:27:37;;;;;;;0.45;0.45;;;5.20;99.90;;;;;;5054515;28;20629;-77
2021/03/05 09:30:20;;;;;;;1.05;0.90;;;5.30;99.90;;;;;;5056618;28;20173;-75
2021/03/05 09:32:50;;;;;;;0.50;0.50;;;5.50;99.90;;;;;;5056413;28;20232;-76
2021/03/05 09:35:22;;;;;;;3.10;0.55;;;5.50;99.90;;;;;;5039139;28;20167;-76
2021/03/05 09:37:48;;;;;;;0.20;0.20;;;5.40;99.90;;;;;;5056784;28;20233;-75
2021/03/05 09:40:14;;;;;;;0.52;0.52;;;5.50;99.90;;;;;;5056424;28;20171;-75
2021/03/05 09:42:56;;;;;;;1.05;1.00;;;5.60;99.90;;;;;;5038774;28;20217;-75
2021/03/05 09:45:37;;;;;;;3.05;0.68;;;5.50;99.90;;;;;;5056541;28;20164;-76
2021/03/05 09:48:04;;;;;;;0.32;0.32;;;5.40;99.90;;;;;;5038508;28;20210;-75
2021/03/05 09:50:29;;;;;;;0.47;0.47;;;5.30;99.90;;;;;;5057200;28;20186;-77
2021/03/05 09:52:55;;;;;;;0.40;0.40;;;5.30;99.90;;;;;;5055832;28;20618;-76
2021/03/05 09:55:26;;;;;;;0.30;0.30;;;5.40;99.90;;;;;;5038285;28;20174;-77
2021/03/05 09:57:53;;;;;;;0.20;0.20;;;5.50;99.90;;;;;;5056180;28;20245;-76
2021/03/05 10:00:31;;;;;;;0.30;0.30;;;5.50;99.90;;;;;;5056145;28;20233;-76
2021/03/05 10:03:05;;;;;;;0.20;0.20;;;5.70;99.90;;;;;;5056051;28;20163;-75
2021/03/05 10:05:33;;;;;;;0.22;0.22;;;5.80;99.90;;;;;;5055877;28;20293;-76
2021/03/05 10:07:58;;;;;;;0.25;0.25;;;5.60;99.90;;;;;;5056118;28;20697;-76
2021/03/05 10:10:24;;;;;;;0.40;0.40;;;5.70;99.90;;;;;;5055122;28;20168;-76
2021/03/05 10:12:55;;;;;;;10.85;1.05;;;5.70;99.90;;;;;;5055448;28;20187;-76
2021/03/05 10:15:21;;;;;;;0.43;0.43;;;5.90;99.90;;;;;;5055375;28;20194;-76
2021/03/05 10:17:47;;;;;;;0.30;0.30;;;5.90;99.90;;;;;;5055605;28;20222;-76
2021/03/05 10:20:14;;;;;;;0.20;0.20;;;5.90;99.90;;;;;;5055588;28;20167;-76
2021/03/05 10:22:39;;;;;;;0.20;0.20;;;5.70;99.90;;;;;;5055449;28;20441;-75
2021/03/05 10:25:06;;;;;;;0.40;0.40;;;5.70;99.90;;;;;;5055573;28;20177;-76
2021/03/05 10:27:42;;;;;;;0.55;0.40;;;5.80;99.90;;;;;;5055642;28;20180;-77
2021/03/05 10:30:08;;;;;;;1.85;0.75;;;5.80;99.90;;;;;;5055583;28;20171;-76
2021/03/05 10:32:42;;;;;;;0.43;0.43;;;5.80;99.90;;;;;;5055527;28;20193;-75
2021/03/05 10:35:15;;;;;;;0.50;0.50;;;5.80;99.90;;;;;;5055455;28;20159;-76
2021/03/05 10:37:43;;;;;;;0.25;0.25;;;5.70;99.90;;;;;;5055269;28;20222;-76
2021/03/05 10:40:14;;;;;;;0.35;0.35;;;5.80;99.90;;;;;;5055405;28;20175;-76
2021/03/05 10:42:40;;;;;;;0.68;0.68;;;6.00;99.90;;;;;;5055558;28;20167;-76
2021/03/05 10:45:08;;;;;;;0.20;0.20;;;6.20;99.90;;;;;;5056434;28;20156;-76
2021/03/05 10:47:34;;;;;;;0.52;0.52;;;6.40;99.90;;;;;;5057341;28;20187;-76
2021/03/05 10:50:00;;;;;;;3.03;0.55;;;6.50;99.90;;;;;;5062857;28;20155;-76
2021/03/05 10:52:26;;;;;;;0.47;0.43;;;6.50;99.90;;;;;;5070202;28;20159;-77
2021/03/05 10:54:53;;;;;;;0.32;0.32;;;6.70;99.90;;;;;;5070836;28;20174;-78
2021/03/05 10:57:19;;;;;;;0.38;0.38;;;6.70;99.90;;;;;;5063534;28;20250;-77
2021/03/05 10:59:49;;;;;;;0.57;0.52;;;6.90;99.90;;;;;;5058435;28;20179;-77
2021/03/05 11:02:15;;;;;;;2.65;0.70;;;7.00;99.90;;;;;;5057689;28;20156;-77
2021/03/05 11:04:41;;;;;;;0.20;0.20;;;6.90;99.90;;;;;;5055074;28;20175;-77
2021/03/05 11:07:07;;;;;;;0.45;0.45;;;6.60;99.90;;;;;;5055074;28;20183;-77
2021/03/05 11:09:32;;;;;;;0.22;0.22;;;6.20;99.90;;;;;;5054947;28;20171;-77
2021/03/05 11:11:59;;;;;;;0.73;0.43;;;6.20;99.90;;;;;;5055008;28;20170;-77
2021/03/05 11:14:26;;;;;;;0.35;0.35;;;6.20;99.90;;;;;;5054715;28;20149;-77
2021/03/05 11:16:53;;;;;;;1.85;0.57;;;6.00;99.90;;;;;;5054416;28;20191;-76
2021/03/05 11:19:19;;;;;;;0.20;0.20;;;6.10;99.90;;;;;;5054220;28;20670;-73
2021/03/05 11:21:45;;;;;;;0.30;0.30;;;6.20;99.90;;;;;;5054446;28;20167;-75
2021/03/05 11:24:11;;;;;;;0.50;0.50;;;6.00;99.90;;;;;;5054258;28;20171;-74
2021/03/05 11:26:38;;;;;;;0.57;0.57;;;6.00;99.90;;;;;;5053942;28;20191;-75
2021/03/05 11:29:04;;;;;;;0.20;0.20;;;6.10;99.90;;;;;;5054177;28;20167;-72
2021/03/05 11:31:29;;;;;;;0.25;0.25;;;6.20;99.90;;;;;;5054238;28;20511;-72
2021/03/05 11:33:55;;;;;;;0.70;0.70;;;6.30;99.90;;;;;;5034939;28;20258;-76
2021/03/05 11:36:21;;;;;;;0.30;0.30;;;6.30;99.90;;;;;;5053723;28;20242;-75
2021/03/05 11:38:49;;;;;;;0.50;0.50;;;6.30;99.90;;;;;;5054163;28;20195;-74
2021/03/05 11:41:14;;;;;;;0.20;0.20;;;6.10;99.90;;;;;;5054039;28;20242;-75
2021/03/05 11:43:47;;;;;;;0.40;0.40;;;6.20;99.90;;;;;;5036149;28;20194;-74
2021/03/05 11:46:14;;;;;;;0.43;0.43;;;6.30;99.90;;;;;;5053292;28;20511;-75
2021/03/05 11:48:39;;;;;;;1.25;1.15;;;6.30;99.90;;;;;;5053666;28;20155;-75
2021/03/05 11:51:05;;;;;;;0.68;0.68;;;6.40;99.90;;;;;;5053536;28;20514;-75
2021/03/05 11:53:31;;;;;;;2.03;0.57;;;6.50;99.90;;;;;;5053379;28;20510;-74
2021/03/05 11:55:57;;;;;;;0.52;0.52;;;6.60;99.90;;;;;;5054039;28;20175;-75
2021/03/05 11:58:22;;;;;;;0.28;0.28;;;6.60;99.90;;;;;;5053592;28;20696;-76
2021/03/05 12:00:49;;;;;;;2.70;1.67;;;6.60;99.90;;;;;;5053565;28;20171;-75
2021/03/05 12:03:15;;;;;;;5.07;0.98;;;6.50;99.90;;;;;;5053498;28;20171;-75
2021/03/05 12:05:41;;;;;;;0.30;0.30;;;6.60;99.90;;;;;;5054220;28;20167;-73
2021/03/05 12:08:06;;;;;;;0.22;0.22;;;6.60;99.90;;;;;;5053934;28;20573;-75
2021/03/05 12:10:32;;;;;;;0.28;0.28;;;6.50;99.90;;;;;;5053495;28;20167;-74
2021/03/05 12:12:57;;;;;;;0.20;0.20;;;6.60;99.90;;;;;;5053616;28;20167;-74
2021/03/05 12:15:23;;;;;;;0.57;0.57;;;6.60;99.90;;;;;;5053811;28;20242;-75
2021/03/05 12:17:49;;;;;;;0.20;0.20;;;6.70;99.90;;;;;;5053498;28;20199;-74
2021/03/05 12:20:15;;;;;;;2.38;1.00;;;6.70;99.90;;;;;;5054475;28;20213;-75
2021/03/05 12:22:41;;;;;;;0.25;0.25;;;6.70;99.90;;;;;;5062290;28;20182;-73
2021/03/05 12:25:07;;;;;;;0.20;0.20;;;6.80;99.90;;;;;;5062610;28;20179;-74
2021/03/05 12:27:33;;;;;;;0.43;0.22;;;7.00;99.90;;;;;;5060853;28;20175;-73
2021/03/05 12:30:00;;;;;;;0.22;0.22;;;6.90;99.90;;;;;;5042219;28;20183;-74
2021/03/05 12:32:25;;;;;;;0.55;0.55;;;6.90;99.90;;;;;;5059664;28;20159;-73
2021/03/05 12:34:51;;;;;;;0.20;0.20;;;7.00;99.90;;;;;;5058874;28;20164;-73
2021/03/05 12:37:16;;;;;;;0.22;0.22;;;7.20;99.90;;;;;;5058932;28;20187;-74
2021/03/05 12:39:42;;;;;;;0.30;0.30;;;7.10;98.80;;;;;;5058864;28;20182;-72
2021/03/05 12:42:08;;;;;;;0.73;0.73;;;7.00;98.40;;;;;;5058423;28;20155;-72
2021/03/05 12:44:34;;;;;;;0.20;0.20;;;7.00;98.50;;;;;;5059054;28;20171;-72
2021/03/05 12:47:00;;;;;;;0.20;0.20;;;6.80;98.60;;;;;;5059622;28;20191;-73
2021/03/05 12:49:26;;;;;;;0.50;0.50;;;6.80;98.70;;;;;;5058587;28;20178;-72
2021/03/05 12:51:51;;;;;;;0.25;0.25;;;7.00;98.50;;;;;;5053237;28;20163;-72
2021/03/05 12:54:17;;;;;;;0.20;0.20;;;7.10;97.10;;;;;;5052582;28;20251;-74
2021/03/05 12:56:42;;;;;;;1.08;0.50;;;7.10;98.10;;;;;;5052555;28;20711;-72
2021/03/05 12:59:08;;;;;;;0.20;0.20;;;7.00;96.60;;;;;;5052154;28;20202;-73
2021/03/05 13:01:34;;;;;;;0.20;0.20;;;7.00;97.10;;;;;;5052503;28;20156;-73
2021/03/05 13:03:59;;;;;;;0.20;0.20;;;6.90;95.90;;;;;;5058993;28;20174;-73